Time;durP1;ratioP1;P1;durP2;ratioP2;P2;SDS_P1;SDS_P2;PMS_P1;PMS_P2;Temp;Humidity;BMP_temperature;BMP_pressure;BME280_temperature;BME280_humidity;BME280_pressure;Samples;Min_cycle;Max_cycle;Signal;HPM_P1;HPM_P2
2022/09/09 00:01:20;;;;;;;6.38;2.78;;;17.30;99.90;;;;;;4971557;28;20031;-86
2022/09/09 00:03:54;;;;;;;5.55;2.90;;;17.30;99.90;;;;;;4972083;28;20023;-85
2022/09/09 00:06:33;;;;;;;4.63;2.53;;;17.30;99.90;;;;;;4972609;28;20019;-86
2022/09/09 00:09:10;;;;;;;2.53;2.20;;;17.30;99.90;;;;;;4990056;28;20065;-86
2022/09/09 00:11:46;;;;;;;4.50;2.50;;;17.20;99.90;;;;;;4991236;28;20045;-86
2022/09/09 00:14:48;;;;;;;4.25;2.20;;;17.20;99.90;;;;;;4992149;28;20018;-86
2022/09/09 00:17:40;;;;;;;2.72;2.00;;;17.20;99.90;;;;;;4968060;28;20387;-86
2022/09/09 00:20:14;;;;;;;5.55;2.60;;;17.20;99.90;;;;;;4991975;28;20038;-85
2022/09/09 00:22:47;;;;;;;4.75;2.10;;;17.20;99.90;;;;;;4981445;28;20022;-86
2022/09/09 00:25:29;;;;;;;3.63;2.28;;;17.10;99.90;;;;;;4992825;28;20118;-86
2022/09/09 00:27:56;;;;;;;6.07;2.40;;;17.10;99.90;;;;;;4994205;28;20027;-86
2022/09/09 00:30:24;;;;;;;6.35;2.30;;;17.10;99.90;;;;;;4974636;28;20031;-86
2022/09/09 00:32:54;;;;;;;3.95;2.10;;;17.10;99.90;;;;;;4992776;28;20026;-86
2022/09/09 00:35:29;;;;;;;4.68;2.10;;;17.20;99.90;;;;;;4987426;28;20026;-86
2022/09/09 00:38:01;;;;;;;6.30;2.20;;;17.20;99.90;;;;;;4992688;28;20018;-85
2022/09/09 00:40:35;;;;;;;4.25;2.22;;;17.10;99.90;;;;;;4992629;28;20022;-85
2022/09/09 00:43:20;;;;;;;4.43;2.10;;;17.20;99.90;;;;;;4980756;28;20015;-86
2022/09/09 00:46:14;;;;;;;4.25;2.05;;;17.20;99.90;;;;;;4992901;28;20057;-86
2022/09/09 00:48:58;;;;;;;3.92;2.28;;;17.20;99.90;;;;;;4980473;28;20073;-86
2022/09/09 00:51:44;;;;;;;4.85;1.90;;;17.20;99.90;;;;;;4967649;28;20053;-86
2022/09/09 00:54:36;;;;;;;4.03;2.20;;;17.20;99.90;;;;;;4976348;28;20030;-86
2022/09/09 00:57:23;;;;;;;4.38;2.40;;;17.20;99.90;;;;;;4987245;28;20034;-85
2022/09/09 00:59:54;;;;;;;4.90;1.90;;;17.20;99.90;;;;;;4997564;28;20037;-86
2022/09/09 01:02:31;;;;;;;4.07;1.80;;;17.20;99.90;;;;;;4989482;28;20026;-86
2022/09/09 01:05:11;;;;;;;3.40;1.88;;;17.10;99.90;;;;;;4993559;28;20438;-85
2022/09/09 01:07:36;;;;;;;5.38;1.65;;;17.10;99.90;;;;;;4993621;28;20077;-86
2022/09/09 01:10:14;;;;;;;2.28;1.40;;;17.10;99.90;;;;;;4987704;28;20056;-86
2022/09/09 01:12:46;;;;;;;4.13;1.73;;;17.10;99.90;;;;;;4993179;28;20058;-86
2022/09/09 01:15:24;;;;;;;4.95;1.85;;;17.10;99.90;;;;;;4994743;28;20026;-86
2022/09/09 01:18:01;;;;;;;2.65;1.70;;;17.10;99.90;;;;;;4996892;28;20018;-86
2022/09/09 01:20:37;;;;;;;3.25;1.95;;;17.10;99.90;;;;;;4996819;28;20475;-90
2022/09/09 01:23:03;;;;;;;5.55;1.80;;;17.10;99.90;;;;;;4996912;28;20387;-90
2022/09/09 01:25:43;;;;;;;4.18;1.80;;;17.10;99.90;;;;;;4996970;28;20076;-90
2022/09/09 01:28:21;;;;;;;4.07;1.88;;;17.00;99.90;;;;;;4980807;28;20062;-89
2022/09/09 01:30:48;;;;;;;4.55;1.60;;;17.10;99.90;;;;;;4996747;28;20019;-90
2022/09/09 01:33:17;;;;;;;3.92;1.92;;;17.10;99.90;;;;;;4964574;28;20055;-89
2022/09/09 01:36:05;;;;;;;3.67;1.80;;;17.00;99.90;;;;;;4980202;28;20112;-90
2022/09/09 01:38:32;;;;;;;4.82;2.00;;;17.00;99.90;;;;;;4996724;28;20023;-89
2022/09/09 01:40:58;;;;;;;4.05;1.92;;;17.00;99.90;;;;;;4981782;28;20030;-90
2022/09/09 01:43:26;;;;;;;4.65;1.75;;;17.00;99.90;;;;;;4989381;28;20044;-89
2022/09/09 01:45:55;;;;;;;2.20;1.60;;;16.90;99.90;;;;;;4980302;28;20026;-90
2022/09/09 01:48:22;;;;;;;3.25;1.80;;;16.90;99.90;;;;;;4996441;28;20015;-88
2022/09/09 01:50:48;;;;;;;4.47;2.10;;;16.90;99.90;;;;;;4984253;28;20035;-90
2022/09/09 01:53:16;;;;;;;2.50;1.85;;;17.00;99.90;;;;;;4996804;28;20026;-89
2022/09/09 01:55:49;;;;;;;3.30;1.90;;;16.90;99.90;;;;;;4996416;28;20029;-89
2022/09/09 01:58:43;;;;;;;4.88;2.17;;;16.90;99.90;;;;;;4996846;28;20026;-90
2022/09/09 02:01:50;;;;;;;3.15;2.05;;;16.90;99.90;;;;;;4996283;28;20033;-90
2022/09/09 02:04:41;;;;;;;4.00;2.50;;;16.90;99.90;;;;;;4918415;29;20020;-90
2022/09/09 02:07:16;;;;;;;3.03;1.95;;;16.80;99.90;;;;;;4980383;28;20384;-90
2022/09/09 02:09:44;;;;;;;3.03;2.08;;;16.80;99.90;;;;;;4996322;28;20026;-90
2022/09/09 02:12:17;;;;;;;4.60;2.35;;;16.80;99.90;;;;;;4986212;28;20050;-90
2022/09/09 02:14:49;;;;;;;3.63;2.03;;;16.80;99.90;;;;;;4996404;28;20532;-90
2022/09/09 02:17:21;;;;;;;4.50;2.10;;;16.80;99.90;;;;;;4979953;28;20034;-91
2022/09/09 02:19:53;;;;;;;5.18;2.40;;;16.80;99.90;;;;;;4979645;28;20010;-90
2022/09/09 02:22:24;;;;;;;5.15;1.98;;;16.70;99.90;;;;;;4996032;28;20080;-90
2022/09/09 02:24:53;;;;;;;2.58;1.95;;;16.80;99.90;;;;;;4979962;28;20057;-90
2022/09/09 02:27:21;;;;;;;3.42;2.15;;;16.80;99.90;;;;;;4976456;28;20031;-91
2022/09/09 02:29:50;;;;;;;4.88;2.00;;;16.70;99.90;;;;;;4995882;28;20468;-90
2022/09/09 02:32:20;;;;;;;3.05;2.10;;;16.70;99.90;;;;;;4979321;28;20018;-90
2022/09/09 02:34:50;;;;;;;4.10;2.28;;;16.70;99.90;;;;;;4995739;28;20057;-90
2022/09/09 02:37:20;;;;;;;3.90;1.92;;;16.70;99.90;;;;;;4996739;28;20034;-90
2022/09/09 02:39:49;;;;;;;2.88;2.00;;;16.70;99.90;;;;;;4995692;28;20023;-89
2022/09/09 02:42:14;;;;;;;4.57;2.40;;;16.60;99.90;;;;;;4979351;28;20077;-89
2022/09/09 02:44:41;;;;;;;4.32;2.10;;;16.60;99.90;;;;;;4964201;28;20022;-89
2022/09/09 02:47:10;;;;;;;3.70;2.17;;;16.60;99.90;;;;;;4978940;28;20073;-88
2022/09/09 02:49:56;;;;;;;4.68;2.28;;;16.60;99.90;;;;;;4994866;28;20065;-89
2022/09/09 02:52:55;;;;;;;5.93;2.42;;;16.70;99.90;;;;;;4995133;28;20022;-89
2022/09/09 02:55:51;;;;;;;4.70;2.40;;;16.60;99.90;;;;;;4979234;28;20107;-89
2022/09/09 02:58:18;;;;;;;3.70;2.42;;;16.60;99.90;;;;;;4993211;28;20046;-88
2022/09/09 03:00:46;;;;;;;4.80;2.50;;;16.60;99.90;;;;;;4995737;28;20120;-88
2022/09/09 03:03:13;;;;;;;5.28;2.40;;;16.60;99.90;;;;;;4980001;28;20011;-91
2022/09/09 03:05:38;;;;;;;5.50;2.45;;;16.60;99.90;;;;;;4980186;28;20026;-92
2022/09/09 03:08:07;;;;;;;4.07;2.30;;;16.60;99.90;;;;;;4980482;28;20571;-93
2022/09/09 03:10:34;;;;;;;7.45;2.45;;;16.60;99.90;;;;;;4978844;28;20038;-92
2022/09/09 03:13:00;;;;;;;6.28;2.40;;;16.60;99.90;;;;;;4996727;28;20026;-92
2022/09/09 03:15:30;;;;;;;4.75;2.40;;;16.50;99.90;;;;;;4975948;28;20042;-92
2022/09/09 03:17:56;;;;;;;5.53;2.50;;;16.60;99.90;;;;;;4979161;28;20057;-91
2022/09/09 03:20:25;;;;;;;7.80;2.90;;;16.50;99.90;;;;;;4978777;28;20039;-91
2022/09/09 03:22:56;;;;;;;5.35;2.50;;;16.50;99.90;;;;;;4984772;28;20030;-92
2022/09/09 03:25:25;;;;;;;7.43;2.73;;;16.50;99.90;;;;;;4983446;28;20506;-92
2022/09/09 03:27:54;;;;;;;5.55;2.60;;;16.40;99.90;;;;;;4995045;28;20026;-91
2022/09/09 03:30:26;;;;;;;6.38;2.72;;;16.40;99.90;;;;;;4979384;28;20049;-92
2022/09/09 03:32:52;;;;;;;4.63;2.22;;;16.40;99.90;;;;;;4979089;28;20030;-92
2022/09/09 03:35:19;;;;;;;4.32;2.38;;;16.30;99.90;;;;;;4979116;28;20149;-92
2022/09/09 03:37:44;;;;;;;5.10;2.50;;;16.30;99.90;;;;;;4995275;28;20383;-91
2022/09/09 03:40:11;;;;;;;7.85;2.72;;;16.30;99.90;;;;;;4963028;28;20022;-92
2022/09/09 03:42:38;;;;;;;5.75;2.65;;;16.30;99.90;;;;;;5007427;28;20022;-92
2022/09/09 03:45:09;;;;;;;5.22;2.72;;;16.30;99.90;;;;;;5010682;28;20442;-92
2022/09/09 03:47:34;;;;;;;;;;;16.30;99.90;;;;;;4987268;28;20025;-93
2022/09/09 03:50:00;;;;;;;7.68;2.90;;;16.30;99.90;;;;;;4981134;28;19968;-92
2022/09/09 03:52:26;;;;;;;5.05;2.38;;;16.30;99.90;;;;;;4982561;28;20165;-93
2022/09/09 03:54:53;;;;;;;7.18;2.83;;;16.30;99.90;;;;;;4975139;28;20054;-92
2022/09/09 03:57:19;;;;;;;5.72;2.67;;;16.30;99.90;;;;;;4978474;28;20147;-92
2022/09/09 03:59:45;;;;;;;6.13;2.90;;;16.20;99.90;;;;;;4978052;28;20022;-92
2022/09/09 04:02:11;;;;;;;6.05;2.63;;;16.20;99.90;;;;;;4967518;28;20077;-92
2022/09/09 04:04:36;;;;;;;6.75;3.00;;;16.20;99.90;;;;;;4975236;28;20041;-93
2022/09/09 04:07:02;;;;;;;9.25;3.00;;;16.20;99.90;;;;;;4967468;28;20022;-93
2022/09/09 04:09:28;;;;;;;8.38;3.05;;;16.20;99.90;;;;;;4978276;28;20105;-92
2022/09/09 04:11:54;;;;;;;6.50;3.00;;;16.10;99.90;;;;;;4995278;28;20066;-93
2022/09/09 04:14:20;;;;;;;8.07;2.83;;;16.10;99.90;;;;;;4994644;28;20029;-90
2022/09/09 04:16:46;;;;;;;5.75;2.53;;;16.10;99.90;;;;;;4963500;28;20423;-89
2022/09/09 04:19:13;;;;;;;7.80;2.65;;;16.10;99.90;;;;;;4979032;28;20057;-89
2022/09/09 04:21:40;;;;;;;7.03;3.63;;;16.10;99.90;;;;;;4978150;28;20101;-89
2022/09/09 04:24:07;;;;;;;9.07;3.97;;;16.00;99.90;;;;;;4995518;28;20467;-89
2022/09/09 04:26:33;;;;;;;7.88;2.95;;;16.00;99.90;;;;;;4978116;28;20034;-92
2022/09/09 04:28:59;;;;;;;6.43;2.90;;;16.00;99.90;;;;;;4974733;28;20023;-91
2022/09/09 04:31:25;;;;;;;8.73;2.90;;;16.00;99.90;;;;;;4968788;28;20109;-93
2022/09/09 04:33:51;;;;;;;8.85;3.13;;;16.00;99.90;;;;;;4976879;28;20045;-92
2022/09/09 04:36:21;;;;;;;10.32;3.28;;;16.00;99.90;;;;;;4970256;28;20023;-92
2022/09/09 04:38:48;;;;;;;5.53;2.75;;;16.00;99.90;;;;;;4988683;28;20081;-94
2022/09/09 04:41:16;;;;;;;7.93;3.80;;;16.00;99.90;;;;;;4977766;28;20045;-91
2022/09/09 04:43:43;;;;;;;10.60;3.30;;;16.00;99.90;;;;;;4978336;28;20488;-92
2022/09/09 04:46:09;;;;;;;8.50;3.28;;;16.00;99.90;;;;;;4978441;28;20018;-86
2022/09/09 04:48:34;;;;;;;9.65;3.30;;;16.00;99.90;;;;;;4980410;28;20030;-85
2022/09/09 04:51:09;;;;;;;8.15;3.45;;;16.00;99.90;;;;;;4963378;28;20065;-85
2022/09/09 04:53:35;;;;;;;8.18;2.80;;;16.10;99.90;;;;;;4993651;28;20053;-86
2022/09/09 04:56:13;;;;;;;9.48;3.20;;;16.00;99.90;;;;;;4976769;28;20531;-85
2022/09/09 04:58:42;;;;;;;7.80;3.00;;;16.00;99.90;;;;;;4976670;28;20038;-85
2022/09/09 05:01:14;;;;;;;9.02;3.78;;;16.10;99.90;;;;;;4976575;28;20022;-86
2022/09/09 05:03:40;;;;;;;7.05;3.17;;;16.10;99.90;;;;;;4997921;28;20468;-86
2022/09/09 05:06:09;;;;;;;9.38;3.13;;;16.10;99.90;;;;;;4965570;28;20029;-85
2022/09/09 05:08:38;;;;;;;8.88;3.97;;;16.10;99.90;;;;;;4992359;28;20050;-86
2022/09/09 05:11:13;;;;;;;8.40;3.28;;;16.10;99.90;;;;;;4993467;28;20026;-91
2022/09/09 05:13:40;;;;;;;7.38;3.55;;;16.10;99.90;;;;;;4978340;28;20030;-85
2022/09/09 05:16:05;;;;;;;8.13;3.17;;;16.10;99.90;;;;;;4962373;28;20031;-89
2022/09/09 05:18:31;;;;;;;9.02;3.33;;;16.10;99.90;;;;;;4993681;28;20036;-90
2022/09/09 05:21:00;;;;;;;7.82;3.35;;;16.10;99.90;;;;;;4970568;28;20042;-90
2022/09/09 05:23:26;;;;;;;8.00;3.20;;;16.20;99.90;;;;;;4943295;28;20484;-92
2022/09/09 05:25:59;;;;;;;5.68;3.20;;;16.20;99.90;;;;;;4993597;28;20022;-91
2022/09/09 05:28:26;;;;;;;8.57;3.53;;;16.20;99.90;;;;;;4977544;28;20026;-91
2022/09/09 05:30:57;;;;;;;10.18;3.42;;;16.20;99.90;;;;;;5003490;28;20073;-92
2022/09/09 05:33:23;;;;;;;9.93;3.75;;;16.20;99.90;;;;;;4979514;28;20494;-88
2022/09/09 05:35:56;;;;;;;9.43;3.03;;;16.20;99.90;;;;;;4959282;28;20033;-90
2022/09/09 05:38:24;;;;;;;10.70;3.92;;;16.20;99.90;;;;;;4970919;28;20050;-86
2022/09/09 05:40:50;;;;;;;8.95;3.58;;;16.20;99.90;;;;;;4947454;28;20082;-88
2022/09/09 05:43:15;;;;;;;8.25;3.50;;;16.20;99.90;;;;;;4958867;28;20022;-91
2022/09/09 05:45:41;;;;;;;7.07;3.70;;;16.10;99.90;;;;;;4977600;28;20117;-92
2022/09/09 05:48:07;;;;;;;9.40;3.28;;;16.10;99.90;;;;;;4973415;28;20017;-90
2022/09/09 05:50:33;;;;;;;8.40;3.50;;;16.20;99.90;;;;;;4977096;28;20166;-90
2022/09/09 05:52:59;;;;;;;9.40;3.47;;;16.20;99.90;;;;;;4945035;28;20058;-91
2022/09/09 05:55:25;;;;;;;10.52;3.67;;;16.20;99.90;;;;;;4981173;28;20117;-91
2022/09/09 05:57:51;;;;;;;10.65;4.25;;;16.20;99.90;;;;;;4980976;28;20109;-90
2022/09/09 06:00:17;;;;;;;8.55;3.80;;;16.20;99.90;;;;;;4980389;28;20066;-89
2022/09/09 06:02:43;;;;;;;9.05;3.88;;;16.20;99.90;;;;;;4982082;28;20031;-90
2022/09/09 06:05:10;;;;;;;10.10;3.65;;;16.20;99.90;;;;;;4982005;28;20026;-89
2022/09/09 06:07:37;;;;;;;8.25;3.22;;;16.20;99.90;;;;;;4975050;28;20047;-89
2022/09/09 06:10:03;;;;;;;8.30;2.97;;;16.30;99.90;;;;;;4962038;28;20027;-90
2022/09/09 06:12:28;;;;;;;8.80;3.40;;;16.20;99.90;;;;;;4965866;28;20038;-90
2022/09/09 06:14:54;;;;;;;7.97;2.92;;;16.30;99.90;;;;;;4959460;28;20031;-89
2022/09/09 06:17:20;;;;;;;9.35;3.80;;;16.30;99.90;;;;;;4976164;28;20031;-89
2022/09/09 06:19:46;;;;;;;10.38;3.72;;;16.30;99.90;;;;;;4976727;28;20030;-90
2022/09/09 06:22:12;;;;;;;10.90;4.15;;;16.30;99.90;;;;;;4986198;23;20133;-92
2022/09/09 06:24:38;;;;;;;9.05;3.28;;;16.40;99.90;;;;;;4986558;28;20033;-93
2022/09/09 06:27:05;;;;;;;9.80;3.28;;;16.40;99.90;;;;;;4996271;28;20379;-92
2022/09/09 06:29:30;;;;;;;11.65;3.50;;;16.40;99.90;;;;;;4976598;28;20419;-92
2022/09/09 06:31:56;;;;;;;10.43;3.42;;;16.40;99.90;;;;;;5012515;28;20039;-92
2022/09/09 06:34:22;;;;;;;10.13;3.13;;;16.40;99.90;;;;;;4997263;28;20029;-91
2022/09/09 06:36:47;;;;;;;6.82;2.92;;;16.40;99.90;;;;;;4996961;28;20073;-92
2022/09/09 06:39:15;;;;;;;9.88;3.20;;;16.40;99.90;;;;;;5010980;28;20030;-89
2022/09/09 06:41:42;;;;;;;7.30;2.80;;;16.40;99.90;;;;;;4989625;28;20073;-87
2022/09/09 06:44:08;;;;;;;10.07;3.42;;;16.40;99.90;;;;;;4994833;28;20117;-86
2022/09/09 06:46:35;;;;;;;9.10;3.20;;;16.40;99.90;;;;;;4978888;28;20130;-88
2022/09/09 06:49:02;;;;;;;14.68;3.10;;;16.40;99.90;;;;;;5011331;28;20422;-85
2022/09/09 06:51:30;;;;;;;7.63;2.60;;;16.40;99.90;;;;;;4995076;28;20475;-86
2022/09/09 06:53:58;;;;;;;9.30;3.25;;;16.40;99.90;;;;;;4995974;28;20026;-86
2022/09/09 06:56:27;;;;;;;8.07;2.80;;;16.50;99.90;;;;;;4997972;28;20352;-87
2022/09/09 06:58:55;;;;;;;8.68;2.40;;;16.50;99.90;;;;;;5011806;28;20019;-89
2022/09/09 07:01:24;;;;;;;11.18;3.10;;;16.50;99.90;;;;;;4996298;28;20026;-89
2022/09/09 07:03:54;;;;;;;10.77;2.72;;;16.50;99.90;;;;;;5002773;28;20110;-87
2022/09/09 07:06:26;;;;;;;15.10;3.38;;;16.50;99.90;;;;;;4997317;28;20022;-88
2022/09/09 07:08:53;;;;;;;10.80;2.75;;;16.60;99.90;;;;;;5011381;28;20122;-88
2022/09/09 07:11:20;;;;;;;9.15;2.83;;;16.60;99.90;;;;;;4995440;28;20054;-87
2022/09/09 07:13:47;;;;;;;9.52;2.72;;;16.60;99.90;;;;;;4996983;28;20034;-92
2022/09/09 07:16:19;;;;;;;10.18;2.67;;;16.70;99.90;;;;;;5011760;28;20476;-92
2022/09/09 07:18:45;;;;;;;12.43;3.20;;;16.70;99.90;;;;;;4996567;28;20110;-88
2022/09/09 07:21:12;;;;;;;11.20;3.33;;;16.70;99.90;;;;;;4978557;28;20129;-89
2022/09/09 07:23:39;;;;;;;7.82;3.15;;;16.70;99.90;;;;;;4982253;28;20046;-88
2022/09/09 07:26:10;;;;;;;9.30;3.03;;;16.70;99.90;;;;;;5000059;28;20046;-89
2022/09/09 07:28:36;;;;;;;12.40;3.17;;;16.80;99.90;;;;;;5000901;28;20385;-89
2022/09/09 07:31:04;;;;;;;10.98;3.10;;;16.80;99.90;;;;;;4998823;28;20026;-90
2022/09/09 07:33:31;;;;;;;13.10;3.20;;;16.80;99.90;;;;;;5000689;28;20030;-89
2022/09/09 07:36:06;;;;;;;13.00;3.35;;;16.80;99.90;;;;;;5015128;28;20022;-89
2022/09/09 07:38:37;;;;;;;8.98;2.67;;;16.90;99.90;;;;;;5007056;28;20029;-89
2022/09/09 07:41:06;;;;;;;10.75;3.00;;;16.90;99.90;;;;;;4986452;28;20038;-89
2022/09/09 07:43:33;;;;;;;11.73;3.05;;;17.00;99.90;;;;;;5001892;28;20022;-85
2022/09/09 07:46:01;;;;;;;7.93;3.30;;;17.10;99.90;;;;;;5000798;28;20036;-89
2022/09/09 07:48:27;;;;;;;11.23;2.90;;;17.10;99.90;;;;;;4999851;28;20022;-89
2022/09/09 07:51:02;;;;;;;10.10;2.88;;;17.10;99.90;;;;;;5000074;28;20050;-89
2022/09/09 07:53:28;;;;;;;9.75;2.70;;;17.10;99.90;;;;;;4995495;28;20030;-89
2022/09/09 07:55:55;;;;;;;13.63;2.88;;;17.20;99.90;;;;;;4977989;28;20037;-88
2022/09/09 07:58:21;;;;;;;8.73;2.67;;;17.20;99.90;;;;;;4994607;28;20192;-87
2022/09/09 08:00:46;;;;;;;8.18;2.83;;;17.20;99.90;;;;;;4995836;28;20073;-87
2022/09/09 08:03:12;;;;;;;11.20;2.83;;;17.30;99.90;;;;;;4981737;28;20034;-88
2022/09/09 08:05:45;;;;;;;9.10;2.28;;;17.40;99.90;;;;;;4995702;28;20034;-88
2022/09/09 08:08:11;;;;;;;10.43;2.53;;;17.40;99.90;;;;;;4979705;28;20022;-85
2022/09/09 08:10:37;;;;;;;10.82;2.63;;;17.40;99.90;;;;;;4996424;28;20121;-85
2022/09/09 08:16:29;;;;;;;7.82;2.40;;;17.50;99.90;;;;;;4997048;28;20415;-84
2022/09/09 08:18:55;;;;;;;13.90;2.92;;;17.50;99.90;;;;;;5001142;28;20018;-82
2022/09/09 08:21:24;;;;;;;8.40;2.17;;;17.50;99.90;;;;;;4995568;28;20037;-85
2022/09/09 08:23:52;;;;;;;12.77;2.88;;;17.50;99.90;;;;;;4997153;28;20046;-84
2022/09/09 08:26:22;;;;;;;8.77;2.17;;;17.60;99.90;;;;;;5007783;28;20514;-85
2022/09/09 08:28:50;;;;;;;9.10;2.20;;;17.60;99.90;;;;;;4997899;28;20026;-84
2022/09/09 08:31:19;;;;;;;8.85;2.67;;;17.60;99.90;;;;;;4983653;28;20019;-84
2022/09/09 08:33:45;;;;;;;8.02;2.30;;;17.60;99.90;;;;;;4979753;28;20026;-84
2022/09/09 08:36:23;;;;;;;10.18;2.58;;;17.70;99.90;;;;;;5001662;28;20022;-85
2022/09/09 08:38:51;;;;;;;6.28;2.35;;;17.70;99.90;;;;;;4994212;28;20022;-91
2022/09/09 08:41:34;;;;;;;9.98;2.80;;;17.70;99.90;;;;;;5008882;28;20038;-90
2022/09/09 08:44:28;;;;;;;14.00;3.10;;;17.70;99.90;;;;;;5010252;28;20022;-91
2022/09/09 08:47:01;;;;;;;11.07;2.83;;;17.70;99.90;;;;;;5011975;28;20045;-90
2022/09/09 08:49:33;;;;;;;10.45;2.55;;;17.70;99.90;;;;;;4995094;28;20080;-90
2022/09/09 08:51:59;;;;;;;6.40;2.08;;;17.70;99.90;;;;;;5011363;28;20060;-90
2022/09/09 08:54:27;;;;;;;7.38;2.17;;;17.80;99.90;;;;;;4978474;28;20404;-91
2022/09/09 08:56:52;;;;;;;6.03;1.77;;;17.80;99.90;;;;;;4978008;28;20475;-84
2022/09/09 08:59:19;;;;;;;8.00;1.65;;;17.80;99.90;;;;;;4992667;28;20048;-83
2022/09/09 09:01:52;;;;;;;6.00;1.77;;;17.90;99.90;;;;;;4976306;28;20045;-84
2022/09/09 09:04:44;;;;;;;9.85;2.05;;;17.90;99.90;;;;;;5006483;28;20089;-84
2022/09/09 09:07:15;;;;;;;6.70;1.92;;;17.90;99.90;;;;;;5009426;28;20054;-83
2022/09/09 09:10:05;;;;;;;7.55;2.10;;;17.90;99.90;;;;;;5012967;28;20026;-83
2022/09/09 09:12:38;;;;;;;13.05;1.95;;;17.90;99.90;;;;;;4996888;28;20029;-85
2022/09/09 09:15:31;;;;;;;7.03;1.75;;;18.00;99.90;;;;;;5012511;28;20030;-83
2022/09/09 09:17:57;;;;;;;6.25;1.70;;;18.00;99.90;;;;;;4995776;28;20023;-84
2022/09/09 09:20:47;;;;;;;8.55;1.60;;;18.00;99.90;;;;;;4988229;28;20070;-83
2022/09/09 09:23:22;;;;;;;9.95;1.70;;;18.00;99.90;;;;;;4999412;28;20035;-83
2022/09/09 09:25:49;;;;;;;7.35;1.58;;;18.10;99.90;;;;;;4996205;28;20049;-83
2022/09/09 09:28:24;;;;;;;7.75;1.75;;;18.10;99.90;;;;;;5012402;28;20118;-84
2022/09/09 09:31:18;;;;;;;17.58;2.17;;;18.10;99.90;;;;;;4995995;28;20033;-82
2022/09/09 09:33:50;;;;;;;9.88;1.90;;;18.20;99.90;;;;;;4982391;28;20443;-84
2022/09/09 09:36:18;;;;;;;4.43;1.55;;;18.20;99.90;;;;;;4997002;28;20089;-82
2022/09/09 09:38:59;;;;;;;8.27;1.85;;;18.20;99.90;;;;;;5012105;28;20384;-81
2022/09/09 09:41:29;;;;;;;;;;;18.20;99.90;;;;;;5012130;28;20038;-81
2022/09/09 09:43:55;;;;;;;9.57;2.03;;;18.20;99.90;;;;;;5011971;28;19910;-84
2022/09/09 09:46:23;;;;;;;7.88;1.95;;;18.30;99.90;;;;;;4995591;28;20480;-82
2022/09/09 09:49:05;;;;;;;5.20;1.40;;;18.30;99.90;;;;;;4995363;28;20018;-83
2022/09/09 09:51:33;;;;;;;6.07;1.80;;;18.40;99.90;;;;;;4996626;28;20033;-82
2022/09/09 09:54:27;;;;;;;7.70;1.70;;;18.40;99.90;;;;;;5011678;28;20029;-82
2022/09/09 09:56:53;;;;;;;7.03;2.05;;;18.50;99.90;;;;;;4995808;28;20045;-83
2022/09/09 09:59:21;;;;;;;7.53;1.70;;;18.50;99.90;;;;;;4984842;28;20484;-84
2022/09/09 10:01:46;;;;;;;11.80;2.22;;;18.50;99.90;;;;;;4999791;28;20026;-83
2022/09/09 10:04:33;;;;;;;4.80;1.55;;;18.50;99.90;;;;;;4979456;28;20372;-83
2022/09/09 10:07:09;;;;;;;7.78;1.70;;;18.50;99.90;;;;;;4997032;28;20030;-82
2022/09/09 10:09:35;;;;;;;9.60;1.70;;;18.60;99.90;;;;;;4995580;28;20026;-90
2022/09/09 10:12:06;;;;;;;8.10;2.08;;;18.60;99.90;;;;;;4979649;28;20030;-90
2022/09/09 10:14:46;;;;;;;7.32;1.90;;;18.60;99.90;;;;;;4996136;28;20030;-89
2022/09/09 10:17:32;;;;;;;9.43;2.08;;;18.60;99.90;;;;;;5008473;28;20026;-89
2022/09/09 10:20:32;;;;;;;12.02;1.92;;;18.60;99.90;;;;;;4974295;28;20504;-90
2022/09/09 10:23:35;;;;;;;6.95;1.67;;;18.50;99.90;;;;;;4993894;28;20043;-90
2022/09/09 10:26:22;;;;;;;7.80;2.58;;;18.60;99.90;;;;;;4995328;28;20018;-89
2022/09/09 10:29:17;;;;;;;10.73;2.65;;;18.50;99.90;;;;;;4986190;28;20022;-82
2022/09/09 10:32:00;;;;;;;9.15;1.88;;;18.50;99.90;;;;;;5010919;28;20022;-82
2022/09/09 10:34:44;;;;;;;6.10;1.52;;;18.60;99.90;;;;;;5001924;28;20110;-81
2022/09/09 10:37:42;;;;;;;11.10;2.03;;;18.60;99.90;;;;;;4994443;28;20498;-82
2022/09/09 10:40:33;;;;;;;10.30;2.15;;;18.60;99.90;;;;;;4928063;28;20054;-81
2022/09/09 10:43:27;;;;;;;9.00;1.55;;;18.60;99.90;;;;;;5005521;28;20093;-82
2022/09/09 10:46:19;;;;;;;6.70;1.65;;;18.60;99.90;;;;;;4981259;28;20040;-82
2022/09/09 10:49:06;;;;;;;8.95;1.83;;;18.60;99.90;;;;;;4984069;28;20475;-84
2022/09/09 10:51:55;;;;;;;8.02;1.73;;;18.60;99.90;;;;;;4995518;28;20069;-84
2022/09/09 10:54:39;;;;;;;5.88;1.60;;;18.60;99.90;;;;;;4972746;28;20039;-83
2022/09/09 10:57:13;;;;;;;12.95;2.55;;;18.60;99.90;;;;;;4993103;28;20030;-83
2022/09/09 10:59:47;;;;;;;7.40;1.90;;;18.60;99.90;;;;;;4995703;28;20026;-83
2022/09/09 11:02:19;;;;;;;6.57;1.73;;;18.70;99.90;;;;;;4995018;28;20018;-82
2022/09/09 11:04:55;;;;;;;10.82;1.80;;;18.70;99.90;;;;;;4995485;28;20037;-84
2022/09/09 11:07:42;;;;;;;13.98;1.75;;;18.70;99.90;;;;;;5010666;28;20096;-81
2022/09/09 11:10:41;;;;;;;6.03;1.70;;;18.70;99.90;;;;;;5010904;28;20038;-81
2022/09/09 11:13:39;;;;;;;7.90;1.98;;;18.70;99.90;;;;;;4995532;28;20503;-80
2022/09/09 11:16:25;;;;;;;8.88;2.22;;;18.70;99.90;;;;;;4984942;28;20026;-81
2022/09/09 11:19:11;;;;;;;6.72;1.92;;;18.80;99.90;;;;;;4992228;28;20148;-82
2022/09/09 11:21:51;;;;;;;7.85;2.00;;;18.80;99.90;;;;;;5009899;28;20100;-83
2022/09/09 11:24:21;;;;;;;9.23;2.10;;;18.70;99.90;;;;;;4994828;28;20057;-83
2022/09/09 11:27:18;;;;;;;8.75;1.88;;;18.70;99.90;;;;;;4993962;28;20026;-82
2022/09/09 11:30:19;;;;;;;11.65;2.35;;;18.70;99.90;;;;;;4993368;28;20472;-82
2022/09/09 11:33:21;;;;;;;8.25;2.13;;;18.80;99.90;;;;;;4988090;28;20113;-82
2022/09/09 11:36:02;;;;;;;7.50;1.63;;;18.70;99.90;;;;;;4993656;28;20061;-83
2022/09/09 11:38:51;;;;;;;8.20;2.20;;;18.70;99.90;;;;;;4995693;28;20479;-83
2022/09/09 11:41:20;;;;;;;10.13;2.47;;;18.70;99.90;;;;;;4977409;28;20026;-84
2022/09/09 11:43:52;;;;;;;9.20;1.90;;;18.70;99.90;;;;;;4962474;28;20415;-83
2022/09/09 11:46:33;;;;;;;5.18;1.63;;;18.70;99.90;;;;;;4962380;28;20093;-82
2022/09/09 11:49:05;;;;;;;9.80;1.88;;;18.70;99.90;;;;;;4977815;28;20106;-83
2022/09/09 11:51:33;;;;;;;7.25;1.90;;;18.80;99.90;;;;;;4995145;28;20018;-83
2022/09/09 11:54:17;;;;;;;7.35;1.63;;;18.70;99.90;;;;;;4994895;28;20026;-84
2022/09/09 11:56:45;;;;;;;9.85;1.77;;;18.70;99.90;;;;;;4993499;28;20026;-83
2022/09/09 11:59:32;;;;;;;8.65;1.92;;;18.60;99.90;;;;;;4981645;28;20030;-83
2022/09/09 12:02:03;;;;;;;5.60;2.00;;;18.60;99.90;;;;;;4980081;28;20081;-83
2022/09/09 12:04:39;;;;;;;7.20;1.90;;;18.50;99.90;;;;;;4993517;28;20089;-84
2022/09/09 12:07:08;;;;;;;7.53;2.03;;;18.50;99.90;;;;;;4993117;28;20022;-85
2022/09/09 12:09:36;;;;;;;8.38;2.20;;;18.50;99.90;;;;;;4974416;28;20380;-85
2022/09/09 12:12:28;;;;;;;6.10;1.77;;;18.60;99.90;;;;;;4990030;28;20100;-85
2022/09/09 12:15:20;;;;;;;7.72;1.80;;;18.60;99.90;;;;;;4999777;28;20049;-85
2022/09/09 12:17:57;;;;;;;10.40;2.63;;;18.60;99.90;;;;;;4986514;28;20018;-85
2022/09/09 12:20:37;;;;;;;4.18;1.95;;;18.60;99.90;;;;;;4994882;28;20030;-83
2022/09/09 12:23:22;;;;;;;6.50;1.65;;;18.60;99.90;;;;;;4999632;28;20049;-84
2022/09/09 12:26:06;;;;;;;9.60;2.20;;;18.50;99.90;;;;;;5003267;28;20034;-84
2022/09/09 12:28:41;;;;;;;4.70;1.52;;;18.50;99.90;;;;;;5009949;28;20018;-91
2022/09/09 12:31:30;;;;;;;5.60;1.73;;;18.50;99.90;;;;;;4998438;28;20026;-89
2022/09/09 12:34:30;;;;;;;5.45;1.83;;;18.50;99.90;;;;;;4992647;28;20052;-91
2022/09/09 12:37:02;;;;;;;4.82;1.70;;;18.60;99.90;;;;;;4972186;28;20045;-90
2022/09/09 12:39:42;;;;;;;4.78;1.70;;;18.60;99.90;;;;;;5008993;28;20176;-90
2022/09/09 12:42:19;;;;;;;9.43;2.22;;;18.70;99.90;;;;;;5009553;28;20747;-89
2022/09/09 12:45:06;;;;;;;4.93;1.70;;;18.70;99.90;;;;;;5013978;28;20098;-89
2022/09/09 12:47:45;;;;;;;4.35;1.70;;;18.80;99.90;;;;;;5013850;28;20081;-89
2022/09/09 12:50:43;;;;;;;7.45;2.08;;;18.80;99.90;;;;;;5019785;28;20015;-85
2022/09/09 12:53:17;;;;;;;4.53;1.80;;;18.80;99.90;;;;;;4972222;28;20054;-85
2022/09/09 12:55:52;;;;;;;4.88;1.67;;;18.90;99.90;;;;;;5012407;28;20076;-86
2022/09/09 12:58:20;;;;;;;5.47;2.10;;;18.90;99.90;;;;;;4993540;28;20019;-86
2022/09/09 13:00:55;;;;;;;7.28;1.80;;;18.90;99.90;;;;;;5006865;28;20042;-86
2022/09/09 13:03:21;;;;;;;5.07;1.48;;;19.00;99.90;;;;;;4997116;28;20045;-86
2022/09/09 13:05:47;;;;;;;6.07;1.55;;;19.00;99.90;;;;;;4984713;28;20031;-84
2022/09/09 13:08:14;;;;;;;9.20;1.60;;;19.00;99.90;;;;;;5008301;28;20015;-84
2022/09/09 13:10:47;;;;;;;4.25;1.88;;;19.00;99.90;;;;;;4999335;28;20083;-84
2022/09/09 13:13:20;;;;;;;3.90;1.60;;;19.00;99.90;;;;;;5019995;28;20025;-83
2022/09/09 13:15:52;;;;;;;4.38;1.98;;;19.00;99.90;;;;;;5011149;28;20172;-85
2022/09/09 13:18:23;;;;;;;5.97;2.35;;;18.90;99.90;;;;;;4996197;28;20034;-82
2022/09/09 13:20:51;;;;;;;4.97;1.55;;;18.90;99.90;;;;;;4996609;28;20044;-81